Time;durP1;ratioP1;P1;durP2;ratioP2;P2;SDS_P1;SDS_P2;PMS_P1;PMS_P2;Temp;Humidity;BMP_temperature;BMP_pressure;BME280_temperature;BME280_humidity;BME280_pressure;Samples;Min_cycle;Max_cycle;Signal;HPM_P1;HPM_P2
2024/01/10 00:00:04;;;;;;;2.20;2.00;;;;;;;-4.24;63.47;94355.41;523818;28;817;-69
2024/01/10 00:00:19;;;;;;;2.90;2.17;;;;;;;-4.21;63.58;94341.06;523694;28;884;-69
2024/01/10 00:00:37;;;;;;;3.90;2.50;;;;;;;-4.20;63.46;94346.00;523988;28;888;-69
2024/01/10 00:00:52;;;;;;;3.30;2.22;;;;;;;-4.18;63.46;94348.28;523833;28;833;-69
2024/01/10 00:01:08;;;;;;;2.45;1.85;;;;;;;-4.17;62.91;94345.16;523909;28;758;-69
2024/01/10 00:01:26;;;;;;;2.30;1.87;;;;;;;-4.15;62.74;94350.88;523891;28;793;-69
2024/01/10 00:01:42;;;;;;;3.63;2.20;;;;;;;-4.13;62.91;94353.88;523712;28;866;-70
2024/01/10 00:01:57;;;;;;;5.10;2.73;;;;;;;-4.12;63.31;94350.03;523907;28;833;-70
2024/01/10 00:02:12;;;;;;;3.72;2.53;;;;;;;-4.10;62.66;94349.56;523605;28;1124;-70
2024/01/10 00:02:28;;;;;;;2.77;1.93;;;;;;;-4.15;62.69;94348.19;523619;28;774;-70
2024/01/10 00:02:43;;;;;;;3.03;1.90;;;;;;;-4.10;62.87;94354.97;523745;28;897;-70
2024/01/10 00:02:59;;;;;;;2.30;2.00;;;;;;;-4.08;63.20;94347.19;523595;28;890;-70
2024/01/10 00:03:14;;;;;;;2.30;2.10;;;;;;;-4.06;62.95;94350.22;523779;28;802;-69
2024/01/10 00:03:30;;;;;;;4.38;2.20;;;;;;;-4.08;63.35;94347.19;523682;28;1011;-69
2024/01/10 00:03:45;;;;;;;4.33;2.00;;;;;;;-4.09;62.86;94346.44;523629;28;1185;-69
2024/01/10 00:04:01;;;;;;;2.05;1.80;;;;;;;-4.22;62.84;94326.09;523615;28;790;-69
2024/01/10 00:04:16;;;;;;;1.80;1.70;;;;;;;-4.06;62.49;94352.91;523853;28;858;-69
2024/01/10 00:04:32;;;;;;;2.20;2.00;;;;;;;-4.04;62.48;94345.91;525250;28;1223;-69
2024/01/10 00:04:47;;;;;;;2.80;2.40;;;;;;;-4.05;62.86;94352.47;525932;28;1081;-69
2024/01/10 00:05:03;;;;;;;3.33;2.27;;;;;;;-4.06;62.80;94356.38;525954;28;806;-69
2024/01/10 00:05:19;;;;;;;2.95;2.20;;;;;;;-4.06;62.61;94350.97;525796;28;961;-69
2024/01/10 00:05:34;;;;;;;2.30;2.10;;;;;;;-4.12;62.15;94355.41;525844;28;1231;-69
2024/01/10 00:05:50;;;;;;;2.20;2.00;;;;;;;-4.18;62.31;94359.09;525803;28;1000;-69
2024/01/10 00:06:05;;;;;;;2.73;2.20;;;;;;;-4.20;62.36;94350.69;526027;28;817;-69
2024/01/10 00:06:21;;;;;;;2.70;2.10;;;;;;;-4.33;62.80;94336.44;525899;28;850;-69
2024/01/10 00:06:36;;;;;;;2.60;2.30;;;;;;;-4.17;62.74;94352.50;525940;28;774;-69
2024/01/10 00:06:52;;;;;;;3.00;2.57;;;;;;;-4.16;62.79;94364.78;525954;28;849;-69
2024/01/10 00:07:07;;;;;;;2.92;2.50;;;;;;;-4.15;63.14;94355.50;525914;28;852;-69
2024/01/10 00:07:23;;;;;;;2.77;2.47;;;;;;;-4.14;63.06;94357.03;525882;28;846;-69
2024/01/10 00:07:39;;;;;;;2.80;2.42;;;;;;;-4.14;62.92;94357.78;525981;28;770;-69
2024/01/10 00:07:54;;;;;;;3.00;2.42;;;;;;;-4.17;62.61;94358.63;526019;28;809;-69
2024/01/10 00:08:10;;;;;;;2.53;2.30;;;;;;;-4.13;62.33;94353.88;525883;28;814;-69
2024/01/10 00:08:25;;;;;;;2.20;2.00;;;;;;;-4.11;62.00;94359.59;525888;28;782;-69
2024/01/10 00:08:41;;;;;;;2.00;1.80;;;;;;;-4.10;62.27;94365.75;525894;28;775;-69
2024/01/10 00:08:56;;;;;;;2.15;1.88;;;;;;;-4.13;62.43;94353.13;525946;28;912;-69
2024/01/10 00:09:12;;;;;;;2.47;2.03;;;;;;;-4.14;62.41;94357.03;525975;28;817;-69
2024/01/10 00:09:27;;;;;;;3.28;2.42;;;;;;;-4.13;62.05;94359.28;525916;28;865;-69
2024/01/10 00:09:43;;;;;;;3.03;2.20;;;;;;;-4.14;61.75;94362.41;525969;28;753;-69
2024/01/10 00:10:00;;;;;;;2.50;1.83;;;;;;;-4.18;62.49;94364.47;525849;28;850;-69
2024/01/10 00:10:16;;;;;;;4.13;2.30;;;;;;;-4.26;62.15;94355.06;525778;28;1914;-69
2024/01/10 00:10:32;;;;;;;5.70;2.38;;;;;;;-4.28;62.27;94357.44;525883;28;931;-69
2024/01/10 00:10:47;;;;;;;4.23;2.20;;;;;;;-4.34;62.47;94359.19;525911;28;754;-69
2024/01/10 00:11:03;;;;;;;2.87;2.40;;;;;;;-4.33;62.09;94360.69;525904;28;788;-69
2024/01/10 00:11:18;;;;;;;4.03;2.60;;;;;;;-4.31;62.06;94355.63;525902;28;762;-69
2024/01/10 00:11:34;;;;;;;3.63;2.60;;;;;;;-4.29;62.46;94361.34;525946;28;1019;-69
2024/01/10 00:11:50;;;;;;;2.97;2.60;;;;;;;-4.29;61.98;94362.09;525892;28;766;-69
2024/01/10 00:12:05;;;;;;;3.10;2.67;;;;;;;-4.33;62.22;94350.66;524828;28;1123;-69
2024/01/10 00:12:21;;;;;;;3.55;2.50;;;;;;;-4.26;62.49;94355.84;523793;28;905;-69
2024/01/10 00:12:37;;;;;;;2.97;2.13;;;;;;;-4.26;62.71;94357.78;523818;28;908;-69
2024/01/10 00:12:52;;;;;;;2.78;2.28;;;;;;;-4.24;62.20;94358.84;523771;28;826;-69
2024/01/10 00:13:08;;;;;;;4.72;2.60;;;;;;;-4.22;62.56;94361.13;523832;28;931;-70
2024/01/10 00:13:23;;;;;;;4.17;2.50;;;;;;;-4.20;62.83;94362.19;523763;28;842;-70
2024/01/10 00:13:39;;;;;;;3.00;2.47;;;;;;;-4.18;62.33;94362.50;523873;28;825;-70
2024/01/10 00:13:59;;;;;;;3.23;2.57;;;;;;;-4.16;62.70;94359.41;523858;28;924;-70
2024/01/10 00:14:16;;;;;;;2.53;2.25;;;;;;;-4.19;61.97;94355.63;523869;28;797;-70
2024/01/10 00:14:31;;;;;;;2.60;2.40;;;;;;;-4.21;62.06;94357.25;523835;28;901;-70
2024/01/10 00:14:47;;;;;;;2.92;2.60;;;;;;;-4.21;62.28;94354.53;523878;28;853;-70
2024/01/10 00:15:04;;;;;;;3.90;2.70;;;;;;;-4.24;62.44;94358.09;523802;28;814;-70
2024/01/10 00:15:19;;;;;;;5.65;2.67;;;;;;;-4.31;62.41;94353.66;523764;28;802;-70
2024/01/10 00:15:35;;;;;;;5.13;2.78;;;;;;;-4.27;62.84;94358.97;523812;28;889;-70
2024/01/10 00:15:51;;;;;;;3.13;2.47;;;;;;;-4.30;62.91;94352.50;523753;28;747;-70
2024/01/10 00:16:06;;;;;;;2.80;2.33;;;;;;;-4.31;62.03;94356.38;523863;28;767;-70
2024/01/10 00:16:22;;;;;;;3.30;2.45;;;;;;;-4.30;62.09;94352.50;523789;28;1098;-70
2024/01/10 00:16:37;;;;;;;3.23;2.53;;;;;;;-4.27;62.27;94358.97;523880;28;766;-70
2024/01/10 00:16:52;;;;;;;2.58;2.38;;;;;;;-4.27;62.67;94353.56;523746;28;881;-70
2024/01/10 00:17:08;;;;;;;2.30;2.10;;;;;;;-4.25;62.90;94359.28;523874;28;763;-70
2024/01/10 00:17:23;;;;;;;2.60;2.08;;;;;;;-4.24;62.29;94358.09;523838;28;841;-69
2024/01/10 00:17:40;;;;;;;3.10;2.20;;;;;;;-4.23;62.53;94362.31;523827;28;790;-69
2024/01/10 00:17:55;;;;;;;3.15;2.38;;;;;;;-4.24;62.67;94358.84;523935;28;920;-69
2024/01/10 00:18:11;;;;;;;3.13;2.20;;;;;;;-4.22;62.91;94361.88;523755;28;832;-69
2024/01/10 00:18:26;;;;;;;3.10;2.30;;;;;;;-4.22;62.86;94361.88;523845;28;877;-69
2024/01/10 00:18:42;;;;;;;2.97;2.67;;;;;;;-4.23;63.46;94357.69;523819;28;786;-69
2024/01/10 00:18:57;;;;;;;3.10;2.60;;;;;;;-4.25;63.28;94360.06;523917;28;778;-69
2024/01/10 00:19:13;;;;;;;2.80;2.40;;;;;;;-4.25;62.75;94362.75;523827;28;806;-69
2024/01/10 00:19:28;;;;;;;2.80;2.60;;;;;;;-4.29;62.86;94364.81;523800;28;862;-69
2024/01/10 00:19:44;;;;;;;3.00;2.70;;;;;;;-4.35;62.73;94360.38;523723;28;845;-70
2024/01/10 00:19:59;;;;;;;3.08;2.40;;;;;;;-4.40;63.22;94361.66;523817;28;857;-70
2024/01/10 00:20:15;;;;;;;2.80;2.27;;;;;;;-4.41;63.22;94370.16;523843;28;1025;-70
2024/01/10 00:20:30;;;;;;;2.60;2.33;;;;;;;-4.55;63.23;94340.97;523703;28;849;-70
2024/01/10 00:20:46;;;;;;;2.73;2.40;;;;;;;-4.41;63.42;94365.53;523875;28;909;-69
2024/01/10 00:21:02;;;;;;;2.83;2.30;;;;;;;-4.39;63.15;94367.78;523798;28;766;-69
2024/01/10 00:21:17;;;;;;;2.73;2.17;;;;;;;-4.38;63.15;94361.22;523803;28;798;-69
2024/01/10 00:21:33;;;;;;;2.70;2.13;;;;;;;-4.37;63.18;94370.81;523804;28;778;-70
2024/01/10 00:21:48;;;;;;;4.85;2.42;;;;;;;-4.37;62.85;94363.47;523788;28;838;-69
2024/01/10 00:22:04;;;;;;;4.63;2.50;;;;;;;-4.40;63.22;94363.59;523888;28;853;-69
2024/01/10 00:22:19;;;;;;;4.90;2.50;;;;;;;-4.38;62.80;94367.38;523744;28;789;-69
2024/01/10 00:22:35;;;;;;;5.43;2.70;;;;;;;-4.37;62.55;94357.34;523928;28;817;-69
2024/01/10 00:22:50;;;;;;;3.38;2.47;;;;;;;-4.35;62.04;94373.84;523745;28;798;-69
2024/01/10 00:23:06;;;;;;;3.43;2.40;;;;;;;-4.45;62.39;94353.34;523885;28;929;-69
2024/01/10 00:23:22;;;;;;;3.40;2.45;;;;;;;-4.41;62.16;94365.53;523707;28;892;-69
2024/01/10 00:23:37;;;;;;;3.25;2.40;;;;;;;-4.44;62.48;94362.97;523830;28;755;-69
2024/01/10 00:23:53;;;;;;;3.88;2.22;;;;;;;-4.45;62.52;94369.53;523743;28;846;-69
2024/01/10 00:24:08;;;;;;;3.53;2.20;;;;;;;-4.46;62.79;94363.38;523820;28;758;-69
2024/01/10 00:24:24;;;;;;;2.90;2.20;;;;;;;-4.46;62.70;94365.34;523881;28;789;-69
2024/01/10 00:24:39;;;;;;;2.80;2.20;;;;;;;-4.47;62.77;94367.25;523806;28;782;-69
2024/01/10 00:24:55;;;;;;;3.30;2.40;;;;;;;-4.49;62.88;94366.94;523894;28;821;-69
2024/01/10 00:25:10;;;;;;;3.63;2.47;;;;;;;-4.50;62.53;94367.38;523741;28;793;-69
2024/01/10 00:25:25;;;;;;;3.53;2.50;;;;;;;-4.50;63.02;94359.28;523858;28;876;-69
2024/01/10 00:25:41;;;;;;;4.85;2.50;;;;;;;-4.49;62.88;94356.16;523794;28;761;-69
2024/01/10 00:25:56;;;;;;;4.47;2.40;;;;;;;-4.46;62.88;94373.41;523881;28;801;-69
2024/01/10 00:26:12;;;;;;;3.10;2.53;;;;;;;-4.46;63.36;94374.16;523837;28;809;-69
2024/01/10 00:26:27;;;;;;;3.27;2.70;;;;;;;-4.45;63.19;94369.53;523834;28;1182;-69
2024/01/10 00:26:43;;;;;;;4.55;2.50;;;;;;;-4.44;63.49;94365.66;523843;28;813;-70
2024/01/10 00:26:58;;;;;;;5.07;2.37;;;;;;;-4.42;63.25;94371.38;523793;28;822;-70
2024/01/10 00:27:14;;;;;;;4.05;2.40;;;;;;;-4.48;63.02;94365.75;523933;28;816;-70
2024/01/10 00:27:29;;;;;;;3.40;2.53;;;;;;;-4.50;64.03;94362.72;523749;28;793;-69
2024/01/10 00:27:45;;;;;;;3.00;2.45;;;;;;;-4.49;63.88;94372.31;523908;28;742;-69
2024/01/10 00:28:00;;;;;;;2.90;2.43;;;;;;;-4.46;63.79;94371.44;523735;28;1093;-69
2024/01/10 00:28:19;;;;;;;2.77;2.47;;;;;;;-4.45;63.45;94364.88;523859;28;1303;-69
2024/01/10 00:28:34;;;;;;;3.10;2.30;;;;;;;-4.44;63.67;94365.66;523866;28;1059;-69
2024/01/10 00:28:50;;;;;;;3.03;2.30;;;;;;;-4.42;63.63;94371.38;523785;28;861;-69
2024/01/10 00:29:06;;;;;;;4.25;2.58;;;;;;;-4.42;63.68;94365.97;523988;28;861;-69
2024/01/10 00:29:21;;;;;;;4.20;2.83;;;;;;;-4.38;64.06;94369.31;523669;28;1184;-70
2024/01/10 00:29:37;;;;;;;3.45;2.65;;;;;;;-4.38;63.92;94361.22;523819;28;888;-70
2024/01/10 00:29:52;;;;;;;2.93;2.50;;;;;;;-4.35;63.51;94373.84;523827;28;916;-70
2024/01/10 00:30:08;;;;;;;5.10;2.60;;;;;;;-4.34;63.48;94361.88;523838;28;767;-70
2024/01/10 00:30:25;;;;;;;14.85;3.45;;;;;;;-4.31;63.55;94367.16;523675;28;1914;-70
2024/01/10 00:30:41;;;;;;;9.05;2.95;;;;;;;-4.33;63.74;94371.47;523693;28;894;-70
2024/01/10 00:30:56;;;;;;;4.83;2.30;;;;;;;-4.31;64.27;94369.13;523817;28;830;-69
2024/01/10 00:31:15;;;;;;;3.03;2.20;;;;;;;-4.29;63.44;94370.19;523858;28;754;-69
2024/01/10 00:31:30;;;;;;;4.60;2.53;;;;;;;-4.27;63.57;94370.50;523574;28;1079;-70
2024/01/10 00:31:46;;;;;;;2.95;2.30;;;;;;;-4.44;63.39;94341.41;523710;28;900;-70
2024/01/10 00:32:02;;;;;;;3.25;2.00;;;;;;;-4.26;63.46;94372.00;523628;28;790;-70
2024/01/10 00:32:17;;;;;;;3.97;2.20;;;;;;;-4.23;62.92;94376.56;523673;28;857;-70
2024/01/10 00:32:35;;;;;;;3.15;2.40;;;;;;;-4.21;62.98;94374.19;523619;28;762;-70
2024/01/10 00:32:50;;;;;;;4.35;2.60;;;;;;;-4.24;63.05;94374.25;523615;28;825;-70
2024/01/10 00:33:06;;;;;;;5.00;2.57;;;;;;;-4.25;63.45;94372.78;523741;28;805;-69
2024/01/10 00:33:21;;;;;;;5.00;2.70;;;;;;;-4.24;62.97;94371.56;523602;28;997;-69
2024/01/10 00:33:37;;;;;;;4.78;2.72;;;;;;;-4.27;63.68;94370.50;523817;28;837;-69
2024/01/10 00:33:52;;;;;;;3.30;2.70;;;;;;;-4.29;63.09;94366.75;523808;28;762;-69
2024/01/10 00:34:07;;;;;;;3.85;2.55;;;;;;;-4.27;63.47;94377.84;523833;28;857;-69
2024/01/10 00:34:23;;;;;;;5.33;2.47;;;;;;;-4.26;63.62;94366.63;523764;28;840;-69
2024/01/10 00:34:38;;;;;;;3.58;2.40;;;;;;;-4.25;63.30;94375.47;523775;28;793;-69
2024/01/10 00:34:54;;;;;;;2.50;2.30;;;;;;;-4.24;63.24;94368.88;523640;28;816;-69
2024/01/10 00:35:10;;;;;;;2.83;2.20;;;;;;;-4.24;63.11;94371.56;523656;28;767;-69
2024/01/10 00:35:25;;;;;;;3.55;2.15;;;;;;;-4.21;62.51;94374.19;523540;28;913;-69
2024/01/10 00:35:41;;;;;;;3.07;2.27;;;;;;;-4.19;63.22;94371.81;523611;28;841;-70
2024/01/10 00:35:56;;;;;;;5.50;2.47;;;;;;;-4.18;62.96;94373.28;523644;28;955;-69
2024/01/10 00:36:12;;;;;;;6.27;2.57;;;;;;;-4.20;62.79;94372.25;523585;28;790;-69
2024/01/10 00:36:27;;;;;;;3.92;2.53;;;;;;;-4.23;62.63;94375.78;523607;28;998;-69
2024/01/10 00:36:43;;;;;;;4.10;2.60;;;;;;;-4.22;62.88;94377.31;523657;28;821;-70
2024/01/10 00:36:58;;;;;;;3.33;2.22;;;;;;;-4.20;62.53;94374.94;523841;28;857;-70
2024/01/10 00:37:13;;;;;;;2.47;1.97;;;;;;;-4.18;62.60;94373.28;523769;28;821;-70
2024/01/10 00:37:29;;;;;;;2.40;2.10;;;;;;;-4.16;61.83;94375.59;523701;28;1118;-70
2024/01/10 00:37:44;;;;;;;2.40;2.20;;;;;;;-4.16;62.41;94370.91;523838;28;790;-69
2024/01/10 00:38:00;;;;;;;2.60;2.20;;;;;;;-4.15;61.88;94377.06;523757;28;852;-69
2024/01/10 00:38:15;;;;;;;4.40;2.60;;;;;;;-4.15;62.30;94369.00;523822;28;873;-69
2024/01/10 00:38:31;;;;;;;4.20;2.60;;;;;;;-4.14;62.06;94373.22;523783;28;928;-69
2024/01/10 00:38:46;;;;;;;3.17;2.08;;;;;;;-4.15;62.42;94369.00;523843;28;802;-69
2024/01/10 00:39:02;;;;;;;3.23;2.10;;;;;;;-4.14;62.41;94373.22;523747;28;853;-69
2024/01/10 00:39:17;;;;;;;2.75;2.25;;;;;;;-4.11;62.31;94372.31;523865;28;801;-69
2024/01/10 00:39:33;;;;;;;2.40;2.20;;;;;;;-4.11;62.08;94372.31;523749;28;829;-70
2024/01/10 00:39:48;;;;;;;2.78;2.40;;;;;;;-4.09;62.06;94368.00;523803;28;853;-70
2024/01/10 00:40:07;;;;;;;3.10;2.40;;;;;;;-4.05;61.99;94373.31;523528;28;1219;-70
2024/01/10 00:40:23;;;;;;;2.70;2.50;;;;;;;-4.06;61.74;94366.41;523491;28;888;-70
2024/01/10 00:40:38;;;;;;;2.50;2.30;;;;;;;-4.05;61.95;94371.34;523624;28;837;-70
2024/01/10 00:40:54;;;;;;;2.80;2.50;;;;;;;-4.03;62.13;94365.53;524059;28;848;-70
2024/01/10 00:41:11;;;;;;;2.90;2.60;;;;;;;-4.01;62.41;94366.63;524051;28;798;-70
2024/01/10 00:41:27;;;;;;;2.58;2.28;;;;;;;-4.03;61.92;94370.94;524181;28;932;-70
2024/01/10 00:41:42;;;;;;;2.55;2.20;;;;;;;-4.03;62.17;94373.63;523956;28;985;-70
2024/01/10 00:41:58;;;;;;;2.37;2.10;;;;;;;-4.03;62.31;94371.66;524214;28;801;-70
2024/01/10 00:42:13;;;;;;;2.88;2.10;;;;;;;-4.03;62.00;94368.97;524234;28;1121;-70
2024/01/10 00:42:28;;;;;;;4.93;2.53;;;;;;;-4.04;62.08;94374.81;524179;28;870;-70
2024/01/10 00:42:44;;;;;;;5.55;2.90;;;;;;;-4.06;62.47;94364.47;524300;28;825;-70
2024/01/10 00:42:59;;;;;;;4.57;2.83;;;;;;;-4.05;62.21;94370.63;524129;28;837;-69
2024/01/10 00:43:15;;;;;;;4.57;2.70;;;;;;;-4.03;62.31;94376.34;524177;28;1060;-70
2024/01/10 00:43:30;;;;;;;3.30;2.60;;;;;;;-4.06;62.58;94369.84;524158;28;746;-70
2024/01/10 00:43:46;;;;;;;3.07;2.50;;;;;;;-4.05;62.85;94374.03;524281;28;771;-70
2024/01/10 00:44:01;;;;;;;4.03;2.40;;;;;;;-4.04;62.20;94370.19;524212;28;802;-70
2024/01/10 00:44:16;;;;;;;3.97;2.27;;;;;;;-4.03;62.31;94368.97;524263;28;784;-70
2024/01/10 00:44:32;;;;;;;4.07;2.45;;;;;;;-4.03;62.19;94377.06;524092;28;774;-70
2024/01/10 00:44:47;;;;;;;3.77;2.57;;;;;;;-4.02;62.84;94375.13;524229;28;849;-70
2024/01/10 00:45:03;;;;;;;4.05;2.70;;;;;;;-4.00;62.20;94373.50;524200;28;786;-70
2024/01/10 00:45:18;;;;;;;4.93;2.53;;;;;;;-3.98;62.22;94373.06;524160;28;1159;-70
2024/01/10 00:45:34;;;;;;;4.18;2.50;;;;;;;-3.98;62.16;94376.53;524225;28;747;-70
2024/01/10 00:45:49;;;;;;;2.97;2.63;;;;;;;-3.96;62.64;94381.47;524103;28;809;-70
2024/01/10 00:46:05;;;;;;;2.72;2.53;;;;;;;-3.96;62.31;94379.53;524204;28;853;-69
2024/01/10 00:46:20;;;;;;;3.17;2.53;;;;;;;-3.94;62.08;94376.41;524216;28;860;-70
2024/01/10 00:46:36;;;;;;;3.67;2.70;;;;;;;-3.91;62.25;94379.00;524270;28;882;-70
2024/01/10 00:46:51;;;;;;;3.77;2.60;;;;;;;-3.92;62.48;94379.47;524143;28;826;-70
2024/01/10 00:47:06;;;;;;;3.53;2.30;;;;;;;-3.90;61.91;94372.41;524222;28;975;-69
2024/01/10 00:47:22;;;;;;;3.70;2.53;;;;;;;-3.91;62.62;94375.56;524057;28;838;-69
2024/01/10 00:47:37;;;;;;;3.63;2.83;;;;;;;-3.91;62.18;94373.63;524208;28;742;-69
2024/01/10 00:47:53;;;;;;;3.07;2.50;;;;;;;-3.89;62.43;94375.88;524216;28;762;-69
2024/01/10 00:48:08;;;;;;;2.87;2.30;;;;;;;-3.87;62.31;94376.94;524215;28;1221;-69
2024/01/10 00:48:24;;;;;;;2.78;2.22;;;;;;;-3.84;62.09;94375.34;524194;28;881;-69
2024/01/10 00:48:39;;;;;;;3.13;2.53;;;;;;;-3.81;62.15;94374.44;524139;28;775;-69
2024/01/10 00:48:55;;;;;;;2.92;2.33;;;;;;;-3.83;61.11;94374.13;524226;28;814;-69
2024/01/10 00:49:10;;;;;;;2.83;1.93;;;;;;;-3.83;60.95;94377.59;524208;28;1597;-69
2024/01/10 00:49:26;;;;;;;2.95;2.20;;;;;;;-3.82;61.40;94372.97;524243;28;830;-69
2024/01/10 00:49:41;;;;;;;3.07;2.10;;;;;;;-3.79;61.45;94379.44;524172;28;858;-69
2024/01/10 00:49:56;;;;;;;2.90;1.90;;;;;;;-3.81;61.36;94371.75;524202;28;763;-70
2024/01/10 00:50:12;;;;;;;2.77;2.13;;;;;;;-3.81;61.67;94377.16;523999;28;1909;-70
2024/01/10 00:50:27;;;;;;;2.97;2.35;;;;;;;-3.83;61.21;94372.19;524218;28;782;-70
2024/01/10 00:50:46;;;;;;;3.37;2.43;;;;;;;-3.83;61.67;94376.84;524227;28;782;-70
2024/01/10 00:51:02;;;;;;;2.67;2.30;;;;;;;-3.91;61.02;94368.22;524212;28;875;-70
2024/01/10 00:51:17;;;;;;;2.40;2.13;;;;;;;-3.96;61.02;94373.41;524256;28;881;-70
2024/01/10 00:51:33;;;;;;;2.83;2.00;;;;;;;-3.96;61.36;94376.84;524112;28;829;-70
2024/01/10 00:51:48;;;;;;;3.75;2.25;;;;;;;-3.94;61.03;94376.41;524224;28;779;-70
2024/01/10 00:52:04;;;;;;;3.93;2.83;;;;;;;-3.96;61.63;94370.69;524289;28;900;-70
2024/01/10 00:52:19;;;;;;;3.67;2.70;;;;;;;-3.99;61.13;94375.03;524188;28;1085;-70
2024/01/10 00:52:36;;;;;;;4.23;2.23;;;;;;;-4.02;61.88;94375.13;524240;28;865;-70
2024/01/10 00:52:51;;;;;;;5.40;2.50;;;;;;;-4.02;62.17;94375.13;524105;28;782;-70
2024/01/10 00:53:07;;;;;;;4.63;2.63;;;;;;;-4.03;61.92;94374.38;524228;28;845;-70
2024/01/10 00:53:22;;;;;;;3.00;2.55;;;;;;;-4.02;61.89;94375.88;524128;28;814;-70
2024/01/10 00:53:42;;;;;;;2.80;2.50;;;;;;;-4.01;61.79;94372.03;524220;28;790;-70
2024/01/10 00:53:57;;;;;;;3.58;2.63;;;;;;;-4.16;61.35;94368.22;524242;28;892;-69
2024/01/10 00:54:13;;;;;;;3.53;2.43;;;;;;;-4.15;61.31;94360.91;524122;28;1117;-69
2024/01/10 00:54:28;;;;;;;2.85;2.40;;;;;;;-4.14;61.62;94365.13;524172;28;786;-69
2024/01/10 00:54:45;;;;;;;4.20;2.50;;;;;;;-4.12;61.47;94368.13;524273;28;833;-69
2024/01/10 00:55:01;;;;;;;4.68;2.65;;;;;;;-4.15;61.68;94367.06;524210;28;813;-69
2024/01/10 00:55:16;;;;;;;5.47;2.50;;;;;;;-4.13;61.89;94364.69;524197;28;1160;-69
2024/01/10 00:55:32;;;;;;;5.17;2.53;;;;;;;-4.11;61.63;94366.94;524169;28;849;-69
2024/01/10 00:55:48;;;;;;;3.00;2.60;;;;;;;-4.07;62.10;94367.59;524154;28;932;-69
2024/01/10 00:56:04;;;;;;;2.78;2.30;;;;;;;-4.08;62.03;94366.06;524174;28;830;-69
2024/01/10 00:56:19;;;;;;;3.45;2.50;;;;;;;-4.07;61.53;94367.59;524166;28;1246;-69
2024/01/10 00:56:35;;;;;;;4.70;2.83;;;;;;;-4.09;62.50;94368.00;524193;28;755;-69
2024/01/10 00:56:50;;;;;;;4.28;2.78;;;;;;;-4.11;62.07;94370.38;524122;28;789;-69
2024/01/10 00:57:06;;;;;;;3.67;2.53;;;;;;;-4.11;62.76;94375.03;524177;28;905;-69
2024/01/10 00:57:21;;;;;;;6.53;2.70;;;;;;;-4.16;62.51;94372.88;524092;28;987;-69
2024/01/10 00:57:38;;;;;;;15.97;3.60;;;;;;;-4.21;62.37;94371.47;524269;28;853;-70
2024/01/10 00:57:53;;;;;;;29.27;5.68;;;;;;;-4.25;63.02;94370.84;524204;28;825;-69
2024/01/10 00:58:08;;;;;;;23.87;5.20;;;;;;;-4.27;63.03;94365.13;524196;28;837;-69
2024/01/10 00:58:24;;;;;;;8.20;2.83;;;;;;;-4.26;63.29;94372.00;524077;28;971;-69
2024/01/10 00:58:39;;;;;;;2.80;2.50;;;;;;;-4.24;62.46;94366.19;524170;28;873;-69
2024/01/10 00:58:57;;;;;;;2.90;2.60;;;;;;;-4.29;63.05;94367.50;524269;28;868;-70
2024/01/10 00:59:13;;;;;;;2.75;2.47;;;;;;;-4.28;62.96;94363.59;524188;28;825;-69
2024/01/10 00:59:28;;;;;;;3.53;2.80;;;;;;;-4.29;63.22;94367.50;524182;28;817;-69
2024/01/10 00:59:44;;;;;;;3.63;2.88;;;;;;;-4.28;62.75;94362.84;524140;28;809;-70
2024/01/10 00:59:59;;;;;;;5.20;2.60;;;;;;;-4.27;62.37;94364.38;524151;28;943;-70
2024/01/10 01:00:15;;;;;;;5.50;2.85;;;;;;;-4.25;62.73;94364.69;524202;28;853;-69
2024/01/10 01:00:32;;;;;;;3.27;2.90;;;;;;;-4.40;62.43;94345.50;524150;28;1074;-69
2024/01/10 01:00:47;;;;;;;2.95;2.67;;;;;;;-4.20;62.62;94369.53;524246;28;873;-69
2024/01/10 01:01:03;;;;;;;3.20;2.70;;;;;;;-4.18;62.73;94372.56;524161;28;770;-69
2024/01/10 01:01:18;;;;;;;3.33;2.53;;;;;;;-4.17;62.03;94368.66;524200;28;1102;-71
2024/01/10 01:01:34;;;;;;;2.97;2.42;;;;;;;-4.14;62.42;94373.22;524202;28;841;-70
2024/01/10 01:01:49;;;;;;;2.63;2.43;;;;;;;-4.14;62.48;94373.22;524138;28;845;-69
2024/01/10 01:02:05;;;;;;;2.60;2.40;;;;;;;-4.13;62.12;94372.00;524162;28;1166;-69
2024/01/10 01:02:20;;;;;;;3.17;2.47;;;;;;;-4.10;61.95;94369.22;524124;28;813;-69
2024/01/10 01:02:36;;;;;;;2.95;2.40;;;;;;;-4.09;61.67;94373.41;524212;28;786;-69
2024/01/10 01:02:51;;;;;;;3.00;2.40;;;;;;;-4.06;61.57;94369.84;524145;28;782;-69
2024/01/10 01:03:07;;;;;;;2.93;2.40;;;;;;;-4.07;61.59;94367.59;524124;28;861;-69
2024/01/10 01:03:22;;;;;;;2.57;2.20;;;;;;;-4.10;61.41;94368.47;524121;28;891;-69
2024/01/10 01:03:38;;;;;;;2.30;2.03;;;;;;;-4.15;61.66;94367.06;525104;28;1096;-69
2024/01/10 01:03:53;;;;;;;2.80;2.13;;;;;;;-4.16;61.89;94370.19;526145;28;861;-69
2024/01/10 01:04:09;;;;;;;3.53;2.47;;;;;;;-4.17;62.03;94374.06;526333;28;746;-69
2024/01/10 01:04:24;;;;;;;2.93;2.47;;;;;;;-4.17;62.27;94372.13;525679;28;1203;-69
2024/01/10 01:04:39;;;;;;;2.78;2.53;;;;;;;-4.15;62.06;94369.00;524044;28;1009;-69
2024/01/10 01:04:55;;;;;;;3.20;2.50;;;;;;;-4.13;61.37;94370.06;524163;28;829;-69
2024/01/10 01:05:10;;;;;;;3.88;2.38;;;;;;;-4.10;61.49;94373.84;524196;28;758;-69
2024/01/10 01:05:26;;;;;;;3.97;2.50;;;;;;;-4.09;61.66;94378.81;524102;28;778;-70
2024/01/10 01:05:41;;;;;;;3.30;2.70;;;;;;;-4.07;61.50;94373.00;524092;28;1271;-70
2024/01/10 01:05:57;;;;;;;3.83;2.80;;;;;;;-4.08;62.12;94369.53;524098;28;920;-70
2024/01/10 01:06:12;;;;;;;4.20;3.10;;;;;;;-4.08;62.39;94374.16;524187;28;813;-70
2024/01/10 01:06:27;;;;;;;3.45;2.85;;;;;;;-4.12;62.24;94371.59;524236;28;1169;-70
2024/01/10 01:06:43;;;;;;;3.47;2.40;;;;;;;-4.13;62.08;94364.69;524082;28;761;-70
2024/01/10 01:06:58;;;;;;;2.83;2.40;;;;;;;-4.14;62.21;94368.56;524153;28;889;-70
2024/01/10 01:07:14;;;;;;;2.70;2.40;;;;;;;-4.13;62.01;94375.47;524151;28;802;-70
2024/01/10 01:07:30;;;;;;;2.97;2.20;;;;;;;-4.13;61.68;94370.06;524100;28;1047;-70
2024/01/10 01:07:45;;;;;;;3.42;2.30;;;;;;;-4.13;62.17;94372.75;524202;28;918;-70
2024/01/10 01:08:00;;;;;;;3.77;2.50;;;;;;;-4.10;62.39;94366.53;524116;28;829;-69
2024/01/10 01:08:16;;;;;;;2.63;2.33;;;;;;;-4.10;62.38;94363.81;524142;28;1074;-69
2024/01/10 01:08:31;;;;;;;3.30;2.42;;;;;;;-4.11;61.75;94367.69;524203;28;784;-69
2024/01/10 01:08:47;;;;;;;3.53;2.50;;;;;;;-4.09;62.53;94369.94;524147;28;1032;-69
2024/01/10 01:09:02;;;;;;;3.15;2.60;;;;;;;-4.08;61.96;94371.47;524165;28;794;-69
2024/01/10 01:09:18;;;;;;;3.13;2.73;;;;;;;-4.06;61.99;94364.47;524180;28;801;-69
2024/01/10 01:09:34;;;;;;;2.80;2.50;;;;;;;-4.06;61.69;94367.16;524108;28;861;-69
2024/01/10 01:09:49;;;;;;;2.78;2.30;;;;;;;-4.03;62.28;94370.94;524116;28;803;-69
2024/01/10 01:10:06;;;;;;;3.23;2.33;;;;;;;-4.04;61.45;94369.41;524160;28;861;-70
2024/01/10 01:10:21;;;;;;;2.63;2.10;;;;;;;-4.04;61.95;94367.47;524050;28;1914;-70
2024/01/10 01:10:37;;;;;;;3.13;2.23;;;;;;;-4.01;61.85;94365.88;524189;28;765;-70
2024/01/10 01:10:52;;;;;;;3.63;2.35;;;;;;;-4.05;61.44;94371.34;524110;28;853;-70
2024/01/10 01:11:08;;;;;;;3.07;2.23;;;;;;;-4.07;61.38;94367.59;524072;28;1020;-69
2024/01/10 01:11:23;;;;;;;3.38;2.38;;;;;;;-4.09;62.12;94370.72;524235;28;766;-69
2024/01/10 01:11:39;;;;;;;2.93;2.30;;;;;;;-4.08;61.47;94369.53;524130;28;846;-69
2024/01/10 01:11:54;;;;;;;3.25;2.25;;;;;;;-4.09;62.11;94365.31;524179;28;909;-69
2024/01/10 01:12:12;;;;;;;3.33;2.20;;;;;;;-4.06;61.75;94374.50;524017;28;1238;-69
2024/01/10 01:12:27;;;;;;;2.60;2.38;;;;;;;-4.05;62.29;94373.31;524168;28;900;-69
2024/01/10 01:12:43;;;;;;;2.93;2.63;;;;;;;-4.23;61.75;94348.81;524167;28;849;-69
2024/01/10 01:12:58;;;;;;;3.22;2.58;;;;;;;-4.10;62.16;94365.75;524164;28;810;-69
2024/01/10 01:13:14;;;;;;;4.15;2.38;;;;;;;-4.11;62.41;94370.38;524160;28;1052;-69
2024/01/10 01:13:29;;;;;;;3.73;2.30;;;;;;;-4.14;62.64;94370.50;524137;28;857;-69
2024/01/10 01:13:45;;;;;;;2.40;2.15;;;;;;;-4.15;62.73;94367.06;524123;28;806;-69
2024/01/10 01:14:00;;;;;;;3.67;2.13;;;;;;;-4.11;62.58;94373.09;524105;28;783;-70
2024/01/10 01:14:16;;;;;;;3.83;2.37;;;;;;;-4.13;62.18;94367.38;524255;28;821;-70
2024/01/10 01:14:31;;;;;;;3.03;2.72;;;;;;;-4.12;62.88;94366.19;524164;28;937;-70
2024/01/10 01:14:46;;;;;;;3.10;2.77;;;;;;;-4.11;62.81;94369.63;524211;28;927;-70
2024/01/10 01:15:02;;;;;;;2.63;2.30;;;;;;;-4.15;62.49;94369.00;524072;28;917;-70
2024/01/10 01:15:18;;;;;;;2.20;2.00;;;;;;;-4.15;62.94;94366.28;524181;28;790;-70
2024/01/10 01:15:33;;;;;;;2.67;1.93;;;;;;;-4.17;62.33;94374.06;524156;28;825;-70
2024/01/10 01:15:48;;;;;;;4.10;2.23;;;;;;;-4.16;63.00;94367.50;524166;28;1047;-70
2024/01/10 01:16:04;;;;;;;4.05;2.40;;;;;;;-4.21;62.28;94360.69;524149;28;786;-69
2024/01/10 01:16:20;;;;;;;4.93;2.50;;;;;;;-4.18;63.12;94367.91;524113;28;1060;-69